createdAt,value
2018-06-01T00:00:20.786Z,2.10
2018-06-01T00:02:49.226Z,2.27
2018-06-01T00:05:16.903Z,2.30
2018-06-01T00:07:44.618Z,2.20
2018-06-01T00:10:12.296Z,2.17
2018-06-01T00:12:40.017Z,2.27
2018-06-01T00:15:07.685Z,2.00
2018-06-01T00:17:35.391Z,2.10
2018-06-01T00:20:03.099Z,2.50
2018-06-01T00:22:31.574Z,2.50
2018-06-01T00:25:00.014Z,2.30
2018-06-01T00:27:27.726Z,2.33
2018-06-01T00:29:56.166Z,2.37
2018-06-01T00:32:23.882Z,2.80
2018-06-01T00:34:51.590Z,2.07
2018-06-01T00:37:19.259Z,2.20
2018-06-01T00:39:46.971Z,2.50
2018-06-01T00:42:14.638Z,2.73
2018-06-01T00:44:42.362Z,2.40
2018-06-01T00:47:10.035Z,2.57
2018-06-01T00:49:37.703Z,2.73
2018-06-01T00:52:05.441Z,2.70
2018-06-01T00:54:45.104Z,2.40
2018-06-01T00:57:12.775Z,2.37
2018-06-01T00:59:41.383Z,2.57
2018-06-01T01:02:09.094Z,2.43
2018-06-01T01:04:36.771Z,2.60
2018-06-01T01:07:04.486Z,2.80
2018-06-01T01:09:32.924Z,2.20
2018-06-01T01:12:00.646Z,2.40
2018-06-01T01:14:29.125Z,2.37
2018-06-01T01:16:57.597Z,2.30
2018-06-01T01:19:26.070Z,2.23
2018-06-01T01:21:53.741Z,2.37
2018-06-01T01:24:22.219Z,1.90
2018-06-01T01:26:50.655Z,2.30
2018-06-01T01:29:18.419Z,1.87
2018-06-01T01:31:46.088Z,1.73
2018-06-01T01:34:13.794Z,2.30
2018-06-01T01:36:41.471Z,1.80
2018-06-01T01:39:09.188Z,1.63
2018-06-01T01:41:36.862Z,1.80
2018-06-01T01:44:05.363Z,1.13
2018-06-01T01:46:33.047Z,1.50
2018-06-01T01:49:00.769Z,1.20
2018-06-01T01:51:28.489Z,1.57
2018-06-01T01:53:56.163Z,1.43
2018-06-01T01:56:23.887Z,1.70
2018-06-01T01:58:51.562Z,1.20
2018-06-01T02:01:19.330Z,1.30
2018-06-01T02:03:47.197Z,1.20
2018-06-01T02:06:15.064Z,1.40
2018-06-01T02:08:42.832Z,1.43
2018-06-01T02:11:10.696Z,1.70
2018-06-01T02:13:38.462Z,1.40
2018-06-01T02:16:06.329Z,1.37
2018-06-01T02:18:34.197Z,1.70
2018-06-01T02:21:01.962Z,1.40
2018-06-01T02:23:29.727Z,1.43
2018-06-01T02:25:57.594Z,1.70
2018-06-01T02:28:25.360Z,1.57
2018-06-01T02:30:53.126Z,1.60
2018-06-01T02:33:20.992Z,1.53
2018-06-01T02:35:48.757Z,1.83
2018-06-01T02:38:16.641Z,1.80
2018-06-01T02:40:44.430Z,1.67
2018-06-01T02:43:12.258Z,2.20
2018-06-01T02:45:40.022Z,1.70
2018-06-01T02:48:07.890Z,1.83
2018-06-01T02:50:35.758Z,2.03
2018-06-01T02:53:03.626Z,2.33
2018-06-01T02:55:31.390Z,1.93
2018-06-01T02:57:59.154Z,2.20
2018-06-01T03:00:27.023Z,1.97
2018-06-01T03:02:54.787Z,2.03
2018-06-01T03:05:22.660Z,1.60
2018-06-01T03:07:50.420Z,2.70
2018-06-01T03:10:18.288Z,2.20
2018-06-01T03:12:45.998Z,2.10
2018-06-01T03:15:14.636Z,2.47
2018-06-01T03:17:42.504Z,2.83
2018-06-01T03:20:10.269Z,2.60
2018-06-01T03:22:38.114Z,3.30
2018-06-01T03:25:05.880Z,3.27
2018-06-01T03:27:33.745Z,3.47
2018-06-01T03:30:01.512Z,3.33
2018-06-01T03:32:29.379Z,3.67
2018-06-01T03:34:57.143Z,3.10
2018-06-01T03:37:25.623Z,4.00
2018-06-01T03:39:54.062Z,4.27
2018-06-01T03:42:21.735Z,4.50
2018-06-01T03:44:49.454Z,3.43
2018-06-01T03:47:17.130Z,3.87
2018-06-01T03:49:44.842Z,3.70
2018-06-01T03:52:12.520Z,3.80
2018-06-01T03:54:40.234Z,3.70
2018-06-01T03:57:08.670Z,4.00
2018-06-01T03:59:36.385Z,4.20
2018-06-01T04:02:04.830Z,3.93
2018-06-01T04:04:32.546Z,4.50
2018-06-01T04:07:00.251Z,4.10
2018-06-01T04:09:28.921Z,4.37
2018-06-01T04:11:56.612Z,4.20
2018-06-01T04:14:24.314Z,4.67
2018-06-01T04:16:52.107Z,4.23
2018-06-01T04:19:19.775Z,4.10
2018-06-01T04:21:47.486Z,4.90
2018-06-01T04:24:15.154Z,4.20
2018-06-01T04:26:42.862Z,4.20
2018-06-01T04:29:10.535Z,4.27
2018-06-01T04:31:38.255Z,4.23
2018-06-01T04:34:06.699Z,4.30
2018-06-01T04:36:34.414Z,4.20
2018-06-01T04:39:02.114Z,5.00
2018-06-01T04:41:30.595Z,6.37
2018-06-01T04:43:58.266Z,6.77
2018-06-01T04:46:25.937Z,7.43
2018-06-01T04:48:53.729Z,6.20
2018-06-01T04:51:21.422Z,6.90
2018-06-01T04:53:49.170Z,5.00
2018-06-01T04:56:16.843Z,4.97
2018-06-01T04:58:44.554Z,5.10
2018-06-01T05:01:12.226Z,5.63
2018-06-01T05:03:40.698Z,5.43
2018-06-01T05:06:08.370Z,4.87
2018-06-01T05:08:36.841Z,4.63
2018-06-01T05:11:04.510Z,4.67
2018-06-01T05:13:32.223Z,5.40
2018-06-01T05:15:59.911Z,5.90
2018-06-01T05:18:28.351Z,6.90
2018-06-01T05:20:56.062Z,5.60
2018-06-01T05:23:23.743Z,5.53
2018-06-01T05:25:51.458Z,5.40
2018-06-01T05:28:19.139Z,6.10
2018-06-01T05:30:47.619Z,5.43
2018-06-01T05:33:16.055Z,5.57
2018-06-01T05:35:43.740Z,5.80
2018-06-01T05:38:11.459Z,4.93
2018-06-01T05:40:39.176Z,5.13
2018-06-01T05:43:06.887Z,4.50
2018-06-01T05:45:35.327Z,4.37
2018-06-01T05:48:03.051Z,4.70
2018-06-01T05:50:30.723Z,4.70
2018-06-01T05:52:58.403Z,5.03
2018-06-01T05:55:26.115Z,7.97
2018-06-01T05:57:53.854Z,9.23
2018-06-01T06:00:21.538Z,10.37
2018-06-01T06:02:49.996Z,11.80
2018-06-01T06:05:17.715Z,11.37
2018-06-01T06:07:45.399Z,12.00
2018-06-01T06:10:13.123Z,12.73
2018-06-01T06:12:40.800Z,12.93
2018-06-01T06:15:09.288Z,12.47
2018-06-01T06:17:37.743Z,11.60
2018-06-01T06:20:06.287Z,11.00
2018-06-01T06:22:34.005Z,9.60
2018-06-01T06:25:01.902Z,9.47
2018-06-01T06:27:30.351Z,9.10
2018-06-01T06:29:58.091Z,10.40
2018-06-01T06:32:25.811Z,10.80
2018-06-01T06:34:53.498Z,11.40
2018-06-01T06:37:21.217Z,11.60
2018-06-01T06:39:49.667Z,11.70
2018-06-01T06:42:17.391Z,11.63
2018-06-01T06:44:45.119Z,12.03
2018-06-01T06:47:12.846Z,13.50
2018-06-01T06:49:41.383Z,14.10
2018-06-01T06:52:09.107Z,14.47
2018-06-01T06:54:37.003Z,14.10
2018-06-01T06:57:04.722Z,13.07
2018-06-01T06:59:32.445Z,12.90
2018-06-01T07:02:00.183Z,13.77
2018-06-01T07:04:27.888Z,13.00
2018-06-01T07:06:55.583Z,12.20
2018-06-01T07:09:23.323Z,11.73
2018-06-01T07:11:51.092Z,11.80
2018-06-01T07:14:18.795Z,11.57
2018-06-01T07:16:46.535Z,10.23
2018-06-01T07:19:14.230Z,11.20
2018-06-01T07:21:41.931Z,10.80
2018-06-01T07:24:09.664Z,10.03
2018-06-01T07:26:38.155Z,9.40
2018-06-01T07:29:05.906Z,9.43
2018-06-01T07:31:34.399Z,9.70
2018-06-01T07:34:02.952Z,10.03
2018-06-01T07:36:30.784Z,8.43
2018-06-01T07:38:58.540Z,7.00
2018-06-01T07:41:27.457Z,5.83
2018-06-01T07:43:55.379Z,5.50
2018-06-01T07:46:24.190Z,5.33
2018-06-01T07:48:52.088Z,5.20
2018-06-01T07:51:20.209Z,5.13
2018-06-01T07:53:47.973Z,5.70
2018-06-01T07:56:15.739Z,6.03
2018-06-01T07:58:43.606Z,6.07
2018-06-01T08:01:11.326Z,5.90
2018-06-01T08:03:39.209Z,6.27
2018-06-01T08:06:07.261Z,5.50
2018-06-01T08:08:34.998Z,6.37
2018-06-01T08:11:02.754Z,6.23
2018-06-01T08:13:30.654Z,5.47
2018-06-01T08:15:59.214Z,5.43
2018-06-01T08:18:26.931Z,5.77
2018-06-01T08:20:55.464Z,5.50
2018-06-01T08:23:23.221Z,5.57
2018-06-01T08:25:51.045Z,4.50
2018-06-01T08:28:18.759Z,4.80
2018-06-01T08:30:46.442Z,4.70
2018-06-01T08:33:14.175Z,4.90
2018-06-01T08:35:41.856Z,4.50
2018-06-01T08:38:09.636Z,5.37
2018-06-01T08:40:37.344Z,5.55
2018-06-01T08:43:05.125Z,5.50
2018-06-01T08:45:33.927Z,5.90
2018-06-01T08:48:01.647Z,5.27
2018-06-01T08:50:29.428Z,5.10
2018-06-01T08:52:57.927Z,5.40
2018-06-01T08:55:26.417Z,5.17
2018-06-01T08:57:54.103Z,4.87
2018-06-01T09:00:21.829Z,3.63
2018-06-01T09:02:50.270Z,4.10
2018-06-01T09:05:18.011Z,3.60
2018-06-01T09:07:45.807Z,3.80
2018-06-01T09:10:13.568Z,3.60
2018-06-01T09:12:41.275Z,3.13
2018-06-01T09:15:09.727Z,4.07
2018-06-01T09:17:38.267Z,3.67
2018-06-01T09:20:05.959Z,4.80
2018-06-01T09:22:33.635Z,5.10
2018-06-01T09:25:01.350Z,5.03
2018-06-01T09:27:29.081Z,4.90
2018-06-01T09:29:57.564Z,4.73
2018-06-01T09:32:26.007Z,4.70
2018-06-01T09:34:53.739Z,5.40
2018-06-01T09:37:21.418Z,5.30
2018-06-01T09:39:49.130Z,5.00
2018-06-01T09:42:16.855Z,5.63
2018-06-01T09:44:44.571Z,4.70
2018-06-01T09:47:12.256Z,4.90
2018-06-01T09:49:39.931Z,5.23
2018-06-01T09:52:07.653Z,5.10
2018-06-01T09:54:35.406Z,5.13
2018-06-01T09:57:03.074Z,5.20
2018-06-01T09:59:30.746Z,5.77
2018-06-01T10:01:58.465Z,5.40
2018-06-01T10:04:26.910Z,5.30
2018-06-01T10:06:54.630Z,5.63
2018-06-01T10:09:26.304Z,5.97
2018-06-01T10:11:54.013Z,5.77
2018-06-01T10:14:21.727Z,5.33
2018-06-01T10:16:49.427Z,6.53
2018-06-01T10:19:17.144Z,6.90
2018-06-01T10:21:44.839Z,6.70
2018-06-01T10:24:12.572Z,7.10
2018-06-01T10:26:40.246Z,6.63
2018-06-01T10:29:07.993Z,7.73
2018-06-01T10:31:35.678Z,7.03
2018-06-01T10:34:03.404Z,7.20
2018-06-01T10:36:31.851Z,7.63
2018-06-01T10:38:59.566Z,7.10
2018-06-01T10:41:27.254Z,7.03
2018-06-01T10:43:54.976Z,6.07
2018-06-01T10:46:23.464Z,6.50
2018-06-01T10:48:51.667Z,5.60
2018-06-01T10:51:19.391Z,6.20
2018-06-01T10:53:47.828Z,6.03
2018-06-01T10:56:15.695Z,5.70
2018-06-01T10:58:43.406Z,5.40
2018-06-01T11:01:11.863Z,5.20
2018-06-01T11:03:39.579Z,5.27
2018-06-01T11:06:07.255Z,6.33
2018-06-01T11:08:34.970Z,5.30
2018-06-01T11:11:03.407Z,5.40
2018-06-01T11:13:31.135Z,4.97
2018-06-01T11:15:58.870Z,5.20
2018-06-01T11:18:26.551Z,5.80
2018-06-01T11:20:54.989Z,5.83
2018-06-01T11:23:22.711Z,5.93
2018-06-01T11:25:50.430Z,5.37
2018-06-01T11:28:18.109Z,5.40
2018-06-01T11:30:45.826Z,5.10
2018-06-01T11:33:14.267Z,5.00
2018-06-01T11:35:42.145Z,5.73
2018-06-01T11:38:09.818Z,4.80
2018-06-01T11:40:37.531Z,4.93
2018-06-01T11:43:05.247Z,5.43
2018-06-01T11:45:32.918Z,4.67
2018-06-01T11:48:01.411Z,5.40
2018-06-01T11:50:29.864Z,5.67
2018-06-01T11:52:57.578Z,5.63
2018-06-01T11:55:25.263Z,4.63
2018-06-01T11:57:52.982Z,6.10
2018-06-01T12:00:21.519Z,5.20
2018-06-01T12:02:49.276Z,5.40
2018-06-01T12:05:16.954Z,6.20
2018-06-01T12:07:44.642Z,5.97
2018-06-01T12:10:13.162Z,4.70
2018-06-01T12:12:40.849Z,5.97
2018-06-01T12:15:08.574Z,5.07
2018-06-01T12:17:36.296Z,5.87
2018-06-01T12:20:04.799Z,5.77
2018-06-01T12:22:33.303Z,5.63
2018-06-01T12:25:00.991Z,5.60
2018-06-01T12:27:28.675Z,5.50
2018-06-01T12:29:56.399Z,5.63
2018-06-01T12:32:24.087Z,5.37
2018-06-01T12:34:51.817Z,5.73
2018-06-01T12:37:19.564Z,4.77
2018-06-01T12:39:48.023Z,5.47
2018-06-01T12:42:15.715Z,4.80
2018-06-01T12:44:44.218Z,5.37
2018-06-01T12:47:11.959Z,4.90
2018-06-01T12:49:40.411Z,4.90
2018-06-01T12:52:08.146Z,4.60
2018-06-01T12:54:35.836Z,4.57
2018-06-01T12:57:03.514Z,4.10
2018-06-01T12:59:31.251Z,4.13
2018-06-01T13:01:58.967Z,4.17
2018-06-01T13:04:27.498Z,4.53
2018-06-01T13:06:55.225Z,5.33
2018-06-01T13:09:22.911Z,5.57
2018-06-01T13:11:50.661Z,5.33
2018-06-01T13:14:18.403Z,4.83
2018-06-01T13:16:46.892Z,5.70
2018-06-01T13:19:15.444Z,5.17
2018-06-01T13:21:43.172Z,5.47
2018-06-01T13:24:10.863Z,5.63
2018-06-01T13:26:38.575Z,5.23
2018-06-01T13:29:06.290Z,4.90
2018-06-01T13:31:34.002Z,5.20
2018-06-01T13:34:02.446Z,5.20
2018-06-01T13:36:30.175Z,5.40
2018-06-01T13:38:57.866Z,5.50
2018-06-01T13:41:25.775Z,4.97
2018-06-01T13:43:54.327Z,5.37
2018-06-01T13:46:22.044Z,5.50
2018-06-01T13:48:49.778Z,5.30
2018-06-01T13:51:18.317Z,4.80
2018-06-01T13:53:46.036Z,5.53
2018-06-01T13:56:14.714Z,4.50
2018-06-01T13:58:43.281Z,5.63
2018-06-01T14:01:11.514Z,5.07
2018-06-01T14:03:39.203Z,4.20
2018-06-01T14:06:07.023Z,4.30
2018-06-01T14:08:34.842Z,4.40
2018-06-01T14:11:02.566Z,4.13
2018-06-01T14:13:30.303Z,4.20
2018-06-01T14:15:58.882Z,3.90
2018-06-01T14:18:27.412Z,3.80
2018-06-01T14:20:55.242Z,4.23
2018-06-01T14:23:23.992Z,3.73
2018-06-01T14:25:51.707Z,4.23
2018-06-01T14:28:20.386Z,4.33
2018-06-01T14:30:48.311Z,4.77
2018-06-01T14:33:16.964Z,4.00
2018-06-01T14:35:45.558Z,4.13
2018-06-01T14:38:13.291Z,3.70
2018-06-01T14:40:41.016Z,4.00
2018-06-01T14:43:09.518Z,4.50
2018-06-01T14:45:37.246Z,4.40
2018-06-01T14:48:06.468Z,4.13
2018-06-01T14:50:34.183Z,4.40
2018-06-01T14:53:01.893Z,4.97
2018-06-01T14:55:29.614Z,5.50
2018-06-01T14:57:57.291Z,4.93
2018-06-01T15:00:24.967Z,5.00
2018-06-01T15:02:52.678Z,4.47
2018-06-01T15:05:20.398Z,4.73
2018-06-01T15:07:48.125Z,4.27
2018-06-01T15:10:15.804Z,4.70
2018-06-01T15:12:43.508Z,4.13
2018-06-01T15:15:11.222Z,5.20
2018-06-01T15:17:38.943Z,4.13
2018-06-01T15:20:07.607Z,4.20
2018-06-01T15:22:35.278Z,4.50
2018-06-01T15:25:03.003Z,4.30
2018-06-01T15:27:30.720Z,3.87
2018-06-01T15:29:58.430Z,3.87
2018-06-01T15:32:26.102Z,3.73
2018-06-01T15:34:53.810Z,4.20
2018-06-01T15:37:21.483Z,4.10
2018-06-01T15:39:49.260Z,4.30
2018-06-01T15:42:16.934Z,4.50
2018-06-01T15:44:44.610Z,4.47
2018-06-01T15:47:12.318Z,4.17
2018-06-01T15:49:39.990Z,4.10
2018-06-01T15:52:07.679Z,4.17
2018-06-01T15:54:36.154Z,3.73
2018-06-01T15:57:03.874Z,4.10
2018-06-01T15:59:31.580Z,3.60
2018-06-01T16:02:00.058Z,4.00
2018-06-01T16:04:27.751Z,3.73
2018-06-01T16:06:55.479Z,4.60
2018-06-01T16:09:23.967Z,3.80
2018-06-01T16:11:52.454Z,4.43
2018-06-01T16:14:20.126Z,4.00
2018-06-01T16:16:47.798Z,3.73
2018-06-01T16:19:15.518Z,3.80
2018-06-01T16:21:43.264Z,3.50
2018-06-01T16:24:11.041Z,3.83
2018-06-01T16:26:38.758Z,3.90
2018-06-01T16:29:06.474Z,3.50
2018-06-01T16:31:34.167Z,3.30
2018-06-01T16:34:01.857Z,3.20
2018-06-01T16:36:29.575Z,3.53
2018-06-01T16:38:57.330Z,3.40
2018-06-01T16:41:25.009Z,3.70
2018-06-01T16:43:53.452Z,4.10
2018-06-01T16:46:21.171Z,3.90
2018-06-01T16:48:48.847Z,4.07
2018-06-01T16:51:16.579Z,4.23
2018-06-01T16:53:44.265Z,3.57
2018-06-01T16:56:11.947Z,3.60
2018-06-01T16:58:39.677Z,4.20
2018-06-01T17:01:07.403Z,4.20
2018-06-01T17:03:35.123Z,4.30
2018-06-01T17:06:02.814Z,4.00
2018-06-01T17:08:31.304Z,3.90
2018-06-01T17:10:59.773Z,3.90
2018-06-01T17:13:27.577Z,3.70
2018-06-01T17:15:55.280Z,3.77
2018-06-01T17:18:23.002Z,3.53
2018-06-01T17:20:50.703Z,3.30
2018-06-01T17:23:18.418Z,3.27
2018-06-01T17:25:46.913Z,3.33
2018-06-01T17:28:15.357Z,3.30
2018-06-01T17:30:43.846Z,3.10
2018-06-01T17:33:12.301Z,3.10
2018-06-01T17:35:40.047Z,3.10
2018-06-01T17:38:07.726Z,3.07
2018-06-01T17:40:35.447Z,3.23
2018-06-01T17:43:03.143Z,3.43
2018-06-01T17:45:30.882Z,3.43
2018-06-01T17:47:58.564Z,3.50
2018-06-01T17:50:26.238Z,3.47
2018-06-01T17:52:53.973Z,3.90
2018-06-01T17:55:21.666Z,3.57
2018-06-01T17:57:49.392Z,3.27
2018-06-01T18:00:17.156Z,3.30
2018-06-01T18:02:45.636Z,3.77
2018-06-01T18:05:14.080Z,3.90
2018-06-01T18:07:41.821Z,3.60
2018-06-01T18:10:09.497Z,2.80
2018-06-01T18:12:37.179Z,3.77
2018-06-01T18:15:04.954Z,3.53
2018-06-01T18:17:32.757Z,3.50
2018-06-01T18:20:00.447Z,4.13
2018-06-01T18:22:28.987Z,3.50
2018-06-01T18:24:57.511Z,3.93
2018-06-01T18:27:25.198Z,3.70
2018-06-01T18:29:52.922Z,3.33
2018-06-01T18:32:20.599Z,3.30
2018-06-01T18:34:48.327Z,3.40
2018-06-01T18:37:16.048Z,3.37
2018-06-01T18:39:43.743Z,3.80
2018-06-01T18:42:11.766Z,4.23
2018-06-01T18:44:40.212Z,3.80
2018-06-01T18:47:07.890Z,4.13
2018-06-01T18:49:35.663Z,4.23
2018-06-01T18:52:04.142Z,4.57
2018-06-01T18:54:31.904Z,4.97
2018-06-01T18:57:00.386Z,5.57
2018-06-01T18:59:28.126Z,5.43
2018-06-01T19:01:55.868Z,5.47
2018-06-01T19:04:23.571Z,5.73
2018-06-01T19:06:52.011Z,4.93
2018-06-01T19:09:26.367Z,4.80
2018-06-01T19:11:54.847Z,4.83
2018-06-01T19:14:23.343Z,4.50
2018-06-01T19:16:51.072Z,4.10
2018-06-01T19:19:18.796Z,4.23
2018-06-01T19:21:46.487Z,3.77
2018-06-01T19:24:14.226Z,3.70
2018-06-01T19:26:41.967Z,4.07
2018-06-01T19:29:09.695Z,4.13
2018-06-01T19:31:37.457Z,4.40
2018-06-01T19:34:05.194Z,4.50
2018-06-01T19:36:32.879Z,3.90
2018-06-01T19:39:00.562Z,4.13
2018-06-01T19:41:34.416Z,4.37
2018-06-01T19:44:02.280Z,4.20
2018-06-01T19:46:30.730Z,4.20
2018-06-01T19:48:58.480Z,4.40
2018-06-01T19:51:26.183Z,4.70
2018-06-01T19:53:54.632Z,4.20
2018-06-01T19:56:22.367Z,4.47
2018-06-01T19:58:50.054Z,4.13
2018-06-01T20:01:17.739Z,3.70
2018-06-01T20:03:45.530Z,3.47
2018-06-01T20:06:13.246Z,4.00
2018-06-01T20:08:40.927Z,4.07
2018-06-01T20:11:08.644Z,3.73
2018-06-01T20:13:37.249Z,3.60
2018-06-01T20:16:04.983Z,3.83
2018-06-01T20:18:32.700Z,3.50
2018-06-01T20:21:00.424Z,4.03
2018-06-01T20:23:28.166Z,4.00
2018-06-01T20:25:56.612Z,3.70
2018-06-01T20:28:25.055Z,4.00
2018-06-01T20:30:52.808Z,3.63
2018-06-01T20:33:21.251Z,3.60
2018-06-01T20:35:48.951Z,3.80
2018-06-01T20:38:16.667Z,3.83
2018-06-01T20:40:44.546Z,4.00
2018-06-01T20:43:14.929Z,3.50
2018-06-01T20:45:42.611Z,3.53
2018-06-01T20:48:10.338Z,3.70
2018-06-01T20:50:38.082Z,3.30
2018-06-01T20:53:05.832Z,3.30
2018-06-01T20:55:34.319Z,2.80
2018-06-01T20:58:02.011Z,2.90
2018-06-01T21:00:29.731Z,3.33
2018-06-01T21:02:58.219Z,3.03
2018-06-01T21:05:26.663Z,3.53
2018-06-01T21:07:54.340Z,3.47
2018-06-01T21:10:22.058Z,3.23
2018-06-01T21:12:49.745Z,3.20
2018-06-01T21:15:17.468Z,3.60
2018-06-01T21:17:45.143Z,3.27
2018-06-01T21:20:12.859Z,3.30
2018-06-01T21:22:41.338Z,3.60
2018-06-01T21:25:09.062Z,3.50
2018-06-01T21:27:36.784Z,3.57
2018-06-01T21:30:05.291Z,3.10
2018-06-01T21:32:32.964Z,3.50
2018-06-01T21:35:00.635Z,3.50
2018-06-01T21:37:28.359Z,3.17
2018-06-01T21:39:56.843Z,3.03
2018-06-01T21:42:25.327Z,3.07
2018-06-01T21:44:53.770Z,3.30
2018-06-01T21:47:21.503Z,2.83
2018-06-01T21:49:49.178Z,3.80
2018-06-01T21:52:16.857Z,3.50
2018-06-01T21:54:44.692Z,3.80
2018-06-01T21:57:12.298Z,4.40
2018-06-01T21:59:39.979Z,3.80
2018-06-01T22:02:08.493Z,4.53
2018-06-01T22:04:36.187Z,4.57
2018-06-01T22:07:03.872Z,3.80
2018-06-01T22:09:31.593Z,4.97
2018-06-01T22:11:59.314Z,4.30
2018-06-01T22:14:27.755Z,4.40
2018-06-01T22:16:55.479Z,4.33
2018-06-01T22:19:23.222Z,4.50
2018-06-01T22:21:50.899Z,4.13
2018-06-01T22:24:19.398Z,3.83
2018-06-01T22:26:47.075Z,3.70
2018-06-01T22:29:14.752Z,3.20
2018-06-01T22:31:42.469Z,3.40
2018-06-01T22:34:10.912Z,3.50
2018-06-01T22:36:38.646Z,3.67
2018-06-01T22:39:06.319Z,3.27
2018-06-01T22:41:33.994Z,4.00
2018-06-01T22:44:01.707Z,3.27
2018-06-01T22:46:30.187Z,3.93
2018-06-01T22:48:58.627Z,3.57
2018-06-01T22:51:26.349Z,3.77
2018-06-01T22:53:54.034Z,4.10
2018-06-01T22:56:21.754Z,4.10
2018-06-01T22:58:50.194Z,4.20
2018-06-01T23:01:17.875Z,4.07
2018-06-01T23:03:45.591Z,3.83
2018-06-01T23:06:13.263Z,3.90
2018-06-01T23:08:40.979Z,4.60
2018-06-01T23:11:08.655Z,3.80
2018-06-01T23:13:37.158Z,3.60
2018-06-01T23:16:04.847Z,3.73
2018-06-01T23:18:32.526Z,3.93
2018-06-01T23:21:00.242Z,4.27
2018-06-01T23:23:27.925Z,4.03
2018-06-01T23:25:55.639Z,4.60
2018-06-01T23:28:23.319Z,4.47
2018-06-01T23:30:51.802Z,3.80
2018-06-01T23:33:20.259Z,4.50
2018-06-01T23:35:47.995Z,3.90
2018-06-01T23:38:15.675Z,4.27
2018-06-01T23:40:43.376Z,4.70
2018-06-01T23:43:11.855Z,4.37
2018-06-01T23:45:40.294Z,4.37
2018-06-01T23:48:08.010Z,4.90
2018-06-01T23:50:35.686Z,5.30
2018-06-01T23:53:03.423Z,4.00
2018-06-01T23:55:31.861Z,4.83
2018-06-01T23:57:59.579Z,4.67
